Hubbard, Oregon
Current Conditions -  °F | °C
As of 6:53 AM on Saturday 22 Nov 2014 (Local Time) from KUAO Reporting Station
Clear Clear  
Wind Chill: 45°   Ceiling: Unl
Heat Index: 45°   Visibility: 10mi
Dew Point: 43°   Wind: 0mph
Humidity: 93%   Direction: NA
Pressure: 29.79"   Gusts: NA
Location:  45.18°N, 122.81°W
Report Text: KUAO 221453Z AUTO 00000KT 10SM CLR 07/06 A2979 RMK AO2 SLP089 T00720061 53010
Loading
Personal Weather Stations






























Interactive Weather Map New forecast layout! Learn more

10-Day Weather Forecast

Advertisements
Track Severe Weather on mobile